createdAt,value
2018-12-26T00:00:52.446Z,0.70
2018-12-26T00:03:19.969Z,0.70
2018-12-26T00:05:47.394Z,0.60
2018-12-26T00:08:14.887Z,0.60
2018-12-26T00:10:42.638Z,0.60
2018-12-26T00:13:10.999Z,0.60
2018-12-26T00:15:38.370Z,0.60
2018-12-26T00:18:05.936Z,0.60
2018-12-26T00:20:33.399Z,0.60
2018-12-26T00:23:00.813Z,0.60
2018-12-26T00:25:29.157Z,0.60
2018-12-26T00:27:57.365Z,0.50
2018-12-26T00:30:25.371Z,0.50
2018-12-26T00:32:53.516Z,0.50
2018-12-26T00:35:21.647Z,0.60
2018-12-26T00:37:49.363Z,0.60
2018-12-26T00:40:17.386Z,0.60
2018-12-26T00:42:45.104Z,0.50
2018-12-26T00:45:12.781Z,0.50
2018-12-26T00:47:40.269Z,0.40
2018-12-26T00:50:07.651Z,0.40
2018-12-26T00:52:35.983Z,0.40
2018-12-26T00:55:04.240Z,0.30
2018-12-26T00:57:32.743Z,0.30
2018-12-26T01:00:01.064Z,0.30
2018-12-26T01:02:29.190Z,0.30
2018-12-26T01:04:56.936Z,0.30
2018-12-26T01:07:25.115Z,0.20
2018-12-26T01:09:52.598Z,0.10
2018-12-26T01:12:20.406Z,0.00
2018-12-26T01:14:48.072Z,-0.10
2018-12-26T01:17:15.771Z,-0.10
2018-12-26T01:19:43.522Z,-0.10
2018-12-26T01:22:11.398Z,-0.10
2018-12-26T01:24:39.395Z,-0.20
2018-12-26T01:27:07.029Z,-0.10
2018-12-26T01:29:35.268Z,-0.10
2018-12-26T01:32:03.167Z,-0.20
2018-12-26T01:34:32.275Z,-0.10
2018-12-26T01:36:59.623Z,0.00
2018-12-26T01:39:27.323Z,0.00
2018-12-26T01:41:55.240Z,-0.10
2018-12-26T01:44:23.199Z,0.00
2018-12-26T01:46:51.858Z,-0.10
2018-12-26T01:49:19.868Z,-0.10
2018-12-26T01:51:47.405Z,-0.20
2018-12-26T01:54:15.569Z,-0.30
2018-12-26T01:56:43.568Z,-0.40
2018-12-26T01:59:11.646Z,-0.40
2018-12-26T02:01:38.990Z,-0.50
2018-12-26T02:04:06.477Z,-0.60
2018-12-26T02:06:34.416Z,-0.70
2018-12-26T02:09:04.212Z,-0.80
2018-12-26T02:11:31.682Z,-0.90
2018-12-26T02:13:59.345Z,-1.00
2018-12-26T02:16:27.310Z,-1.10
2018-12-26T02:18:54.722Z,-1.00
2018-12-26T02:21:22.757Z,-1.10
2018-12-26T02:23:50.618Z,-1.20
2018-12-26T02:26:18.983Z,-1.30
2018-12-26T02:28:46.897Z,-1.40
2018-12-26T02:31:15.481Z,-1.40
2018-12-26T02:33:43.449Z,-1.40
2018-12-26T02:36:11.585Z,-1.40
2018-12-26T02:38:40.155Z,-1.30
2018-12-26T02:41:08.435Z,-1.30
2018-12-26T02:43:37.075Z,-1.20
2018-12-26T02:46:04.996Z,-1.20
2018-12-26T02:48:32.846Z,-1.10
2018-12-26T02:51:01.134Z,-1.10
2018-12-26T02:53:29.004Z,-1.10
2018-12-26T02:55:57.035Z,-1.10
2018-12-26T02:58:24.755Z,-1.10
2018-12-26T03:00:52.377Z,-1.00
2018-12-26T03:03:19.721Z,-1.00
2018-12-26T03:05:47.467Z,-0.90
2018-12-26T03:08:15.058Z,-0.90
2018-12-26T03:10:42.926Z,-0.80
2018-12-26T03:13:10.466Z,-0.80
2018-12-26T03:15:37.930Z,-0.80
2018-12-26T03:18:05.352Z,-0.80
2018-12-26T03:20:34.177Z,-0.70
2018-12-26T03:23:02.120Z,-0.70
2018-12-26T03:25:29.920Z,-0.70
2018-12-26T03:27:59.414Z,-0.70
2018-12-26T03:30:27.799Z,-0.60
2018-12-26T03:32:57.639Z,-0.60
2018-12-26T03:35:30.394Z,-0.60
2018-12-26T03:37:59.074Z,-0.60
2018-12-26T03:40:27.157Z,-0.60
2018-12-26T03:42:55.230Z,-0.60
2018-12-26T03:45:23.431Z,-0.60
2018-12-26T03:47:51.308Z,-0.60
2018-12-26T03:50:19.593Z,-0.60
2018-12-26T03:52:48.399Z,-0.50
2018-12-26T03:55:16.217Z,-0.50
2018-12-26T03:57:44.563Z,-0.50
2018-12-26T04:00:12.742Z,-0.50
2018-12-26T04:02:40.510Z,-0.50
2018-12-26T04:05:08.978Z,-0.50
2018-12-26T04:07:37.457Z,-0.50
2018-12-26T04:10:05.439Z,-0.40
2018-12-26T04:12:33.093Z,-0.40
2018-12-26T04:15:01.675Z,-0.40
2018-12-26T04:17:29.680Z,-0.40
2018-12-26T04:19:57.710Z,-0.30
2018-12-26T04:22:25.383Z,-0.30
2018-12-26T04:24:53.647Z,-0.30
2018-12-26T04:27:21.862Z,-0.30
2018-12-26T04:29:49.703Z,-0.30
2018-12-26T04:32:17.044Z,-0.20
2018-12-26T04:34:44.473Z,-0.20
2018-12-26T04:37:12.557Z,-0.20
2018-12-26T04:39:40.727Z,-0.30
2018-12-26T04:42:08.818Z,-0.20
2018-12-26T04:44:36.373Z,-0.20
2018-12-26T04:47:04.021Z,-0.20
2018-12-26T04:49:31.728Z,-0.20
2018-12-26T04:51:59.549Z,-0.20
2018-12-26T04:54:27.213Z,-0.20
2018-12-26T04:56:55.696Z,-0.20
2018-12-26T04:59:23.355Z,-0.10
2018-12-26T05:01:51.921Z,-0.10
2018-12-26T05:04:19.750Z,-0.10
2018-12-26T05:06:47.773Z,-0.10
2018-12-26T05:09:15.743Z,0.00
2018-12-26T05:11:43.510Z,0.00
2018-12-26T05:14:10.960Z,0.00
2018-12-26T05:16:38.553Z,0.00
2018-12-26T05:19:06.038Z,-0.10
2018-12-26T05:21:33.551Z,-0.10
2018-12-26T05:24:01.448Z,-0.10
2018-12-26T05:26:29.259Z,0.00
2018-12-26T05:28:56.554Z,0.00
2018-12-26T05:31:23.865Z,-0.10
2018-12-26T05:33:51.831Z,-0.10
2018-12-26T05:36:19.422Z,-0.10
2018-12-26T05:38:47.655Z,-0.10
2018-12-26T05:41:15.426Z,-0.10
2018-12-26T05:43:43.504Z,-0.20
2018-12-26T05:46:11.397Z,-0.10
2018-12-26T05:48:40.171Z,-0.10
2018-12-26T05:51:08.023Z,-0.10
2018-12-26T05:53:35.770Z,-0.10
2018-12-26T05:56:03.466Z,-0.10
2018-12-26T05:58:31.135Z,-0.10
2018-12-26T06:00:59.290Z,-0.10
2018-12-26T06:03:27.590Z,-0.10
2018-12-26T06:05:55.439Z,-0.10
2018-12-26T06:08:22.740Z,-0.10
2018-12-26T06:10:50.458Z,-0.10
2018-12-26T06:13:17.888Z,-0.10
2018-12-26T06:15:45.182Z,-0.10
2018-12-26T06:18:12.478Z,-0.10
2018-12-26T06:20:39.916Z,-0.10
2018-12-26T06:23:07.706Z,-0.10
2018-12-26T06:25:35.161Z,-0.10
2018-12-26T06:28:02.609Z,-0.10
2018-12-26T06:30:30.857Z,-0.20
2018-12-26T06:32:58.664Z,-0.10
2018-12-26T06:35:26.028Z,-0.20
2018-12-26T06:37:53.714Z,-0.10
2018-12-26T06:40:21.670Z,-0.10
2018-12-26T06:42:49.399Z,-0.10
2018-12-26T06:45:16.697Z,-0.20
2018-12-26T06:47:44.579Z,-0.20
2018-12-26T06:50:12.641Z,-0.20
2018-12-26T06:52:39.958Z,-0.10
2018-12-26T06:55:07.691Z,-0.10
2018-12-26T06:57:35.496Z,-0.10
2018-12-26T07:00:03.438Z,-0.10
2018-12-26T07:02:31.828Z,-0.10
2018-12-26T07:05:00.006Z,-0.10
2018-12-26T07:07:28.010Z,-0.10
2018-12-26T07:09:55.933Z,-0.10
2018-12-26T07:12:23.329Z,-0.20
2018-12-26T07:14:50.973Z,-0.20
2018-12-26T07:17:18.916Z,-0.20
2018-12-26T07:19:46.885Z,-0.30
2018-12-26T07:22:14.216Z,-0.30
2018-12-26T07:24:41.602Z,-0.20
2018-12-26T07:27:09.520Z,-0.20
2018-12-26T07:29:37.940Z,-0.20
2018-12-26T07:32:06.121Z,-0.20
2018-12-26T07:34:41.998Z,-0.30
2018-12-26T07:37:04.189Z,-0.30
2018-12-26T07:39:32.387Z,-0.30
2018-12-26T07:42:00.164Z,-0.30
2018-12-26T07:44:27.599Z,-0.20
2018-12-26T07:46:55.864Z,0.30
2018-12-26T07:49:23.938Z,-0.20
2018-12-26T07:51:51.394Z,-0.20
2018-12-26T07:54:20.702Z,-0.20
2018-12-26T07:56:48.233Z,-0.30
2018-12-26T07:59:16.633Z,-0.30
2018-12-26T08:01:43.988Z,-0.30
2018-12-26T08:04:11.308Z,-0.30
2018-12-26T08:06:38.647Z,-0.30
2018-12-26T08:09:06.181Z,-0.30
2018-12-26T08:11:33.755Z,-0.20
2018-12-26T08:14:01.167Z,-0.20
2018-12-26T08:16:28.407Z,-0.20
2018-12-26T08:18:55.775Z,-0.20
2018-12-26T08:21:23.329Z,-0.20
2018-12-26T08:23:50.709Z,-0.30
2018-12-26T08:26:18.644Z,-0.30
2018-12-26T08:28:47.006Z,-0.30
2018-12-26T08:31:16.420Z,-0.40
2018-12-26T08:33:43.868Z,-0.50
2018-12-26T08:36:11.377Z,-0.50
2018-12-26T08:38:39.368Z,-0.60
2018-12-26T08:41:07.482Z,-0.60
2018-12-26T08:43:35.244Z,-0.70
2018-12-26T08:46:03.162Z,-0.70
2018-12-26T08:48:31.290Z,-0.60
2018-12-26T08:50:59.002Z,-0.50
2018-12-26T08:53:27.425Z,-0.40
2018-12-26T08:55:54.748Z,-0.30
2018-12-26T08:58:22.336Z,-0.40
2018-12-26T09:00:50.219Z,-0.40
2018-12-26T09:03:18.377Z,-0.30
2018-12-26T09:05:46.481Z,-0.40
2018-12-26T09:08:13.911Z,-0.40
2018-12-26T09:10:43.023Z,-0.30
2018-12-26T09:13:10.375Z,-0.40
2018-12-26T09:15:40.787Z,-0.40
2018-12-26T09:18:08.726Z,-0.40
2018-12-26T09:20:37.539Z,-0.40
2018-12-26T09:23:04.923Z,-0.40
2018-12-26T09:25:33.075Z,-0.40
2018-12-26T09:28:06.446Z,-0.40
2018-12-26T09:30:36.082Z,-0.30
2018-12-26T09:33:03.503Z,-0.30
2018-12-26T09:35:31.681Z,-0.20
2018-12-26T09:38:00.081Z,-0.20
2018-12-26T09:40:27.766Z,-0.20
2018-12-26T09:42:57.901Z,-0.20
2018-12-26T09:45:25.616Z,-0.20
2018-12-26T09:47:53.770Z,-0.20
2018-12-26T09:50:21.761Z,-0.10
2018-12-26T09:52:49.117Z,-0.10
2018-12-26T09:55:16.766Z,0.00
2018-12-26T09:57:44.158Z,0.00
2018-12-26T10:00:11.611Z,0.20
2018-12-26T10:02:39.332Z,0.20
2018-12-26T10:05:07.990Z,0.20
2018-12-26T10:07:37.007Z,0.10
2018-12-26T10:10:05.659Z,0.10
2018-12-26T10:12:33.218Z,0.10
2018-12-26T10:15:01.431Z,0.10
2018-12-26T10:17:28.731Z,0.00
2018-12-26T10:19:56.854Z,0.00
2018-12-26T10:22:25.135Z,-0.10
2018-12-26T10:24:53.119Z,0.10
2018-12-26T10:27:21.886Z,0.10
2018-12-26T10:29:50.165Z,0.10
2018-12-26T10:32:18.050Z,0.20
2018-12-26T10:34:46.039Z,0.20
2018-12-26T10:37:13.369Z,0.20
2018-12-26T10:39:40.776Z,0.20
2018-12-26T10:42:08.734Z,0.20
2018-12-26T10:44:37.054Z,0.20
2018-12-26T10:47:04.632Z,0.20
2018-12-26T10:49:32.600Z,0.30
2018-12-26T10:52:00.160Z,0.30
2018-12-26T10:54:27.480Z,0.40
2018-12-26T10:56:56.272Z,0.40
2018-12-26T10:59:24.150Z,0.50
2018-12-26T11:01:52.426Z,0.60
2018-12-26T11:04:21.531Z,0.70
2018-12-26T11:06:49.662Z,0.80
2018-12-26T11:09:18.097Z,1.00
2018-12-26T11:11:45.785Z,0.90
2018-12-26T11:14:13.970Z,0.80
2018-12-26T11:16:42.575Z,0.80
2018-12-26T11:19:10.566Z,0.80
2018-12-26T11:21:39.065Z,0.80
2018-12-26T11:24:06.478Z,0.70
2018-12-26T11:26:34.166Z,0.60
2018-12-26T11:29:01.983Z,0.60
2018-12-26T11:31:29.871Z,0.40
2018-12-26T11:33:58.510Z,0.40
2018-12-26T11:36:26.759Z,0.40
2018-12-26T11:38:54.771Z,0.50
2018-12-26T11:41:22.696Z,0.50
2018-12-26T11:43:50.256Z,0.50
2018-12-26T11:46:18.742Z,0.50
2018-12-26T11:48:46.778Z,0.70
2018-12-26T11:51:15.835Z,0.80
2018-12-26T11:53:43.281Z,0.90
2018-12-26T11:56:11.096Z,0.90
2018-12-26T11:58:39.163Z,0.90
2018-12-26T12:01:06.911Z,0.80
2018-12-26T12:03:34.329Z,0.80
2018-12-26T12:06:03.166Z,0.70
2018-12-26T12:08:31.957Z,0.60
2018-12-26T12:10:59.755Z,0.50
2018-12-26T12:13:27.818Z,0.70
2018-12-26T12:15:55.623Z,0.90
2018-12-26T12:18:23.011Z,1.10
2018-12-26T12:20:50.653Z,1.20
2018-12-26T12:23:18.149Z,1.20
2018-12-26T12:25:45.405Z,1.20
2018-12-26T12:28:13.146Z,1.30
2018-12-26T12:30:41.408Z,1.40
2018-12-26T12:33:08.803Z,1.40
2018-12-26T12:35:37.300Z,1.30
2018-12-26T12:38:04.781Z,1.20
2018-12-26T12:40:32.183Z,1.20
2018-12-26T12:43:00.153Z,1.30
2018-12-26T12:45:27.905Z,1.20
2018-12-26T12:47:56.541Z,0.80
2018-12-26T12:50:24.444Z,0.70
2018-12-26T12:52:52.334Z,0.60
2018-12-26T12:55:20.485Z,0.60
2018-12-26T12:57:48.065Z,0.60
2018-12-26T13:00:16.061Z,0.70
2018-12-26T13:02:43.881Z,0.70
2018-12-26T13:05:11.386Z,0.60
2018-12-26T13:07:38.723Z,0.60
2018-12-26T13:10:06.692Z,0.60
2018-12-26T13:12:34.031Z,0.70
2018-12-26T13:15:01.506Z,0.80
2018-12-26T13:17:29.365Z,0.90
2018-12-26T13:19:57.466Z,0.90
2018-12-26T13:22:25.082Z,0.90
2018-12-26T13:24:52.624Z,0.70
2018-12-26T13:27:20.488Z,0.60
2018-12-26T13:29:53.755Z,0.50
2018-12-26T13:32:18.362Z,0.40
2018-12-26T13:34:45.866Z,0.30
2018-12-26T13:37:13.774Z,0.30
2018-12-26T13:39:41.872Z,0.30
2018-12-26T13:42:09.571Z,0.30
2018-12-26T13:44:37.538Z,0.30
2018-12-26T13:47:05.460Z,0.30
2018-12-26T13:49:33.019Z,0.40
2018-12-26T13:52:00.999Z,0.30
2018-12-26T13:54:28.276Z,0.40
2018-12-26T13:56:56.692Z,0.40
2018-12-26T13:59:24.555Z,0.30
2018-12-26T14:01:52.700Z,0.40
2018-12-26T14:04:20.116Z,0.40
2018-12-26T14:06:48.265Z,0.30
2018-12-26T14:09:15.993Z,0.30
2018-12-26T14:11:44.219Z,0.30
2018-12-26T14:14:12.803Z,0.30
2018-12-26T14:16:40.649Z,0.20
2018-12-26T14:19:08.739Z,0.20
2018-12-26T14:21:36.640Z,0.20
2018-12-26T14:24:04.517Z,0.20
2018-12-26T14:26:32.879Z,0.20
2018-12-26T14:29:00.438Z,0.20
2018-12-26T14:31:28.181Z,0.20
2018-12-26T14:33:56.493Z,0.10
2018-12-26T14:36:24.929Z,0.20
2018-12-26T14:38:52.497Z,0.20
2018-12-26T14:41:20.075Z,0.10
2018-12-26T14:43:48.216Z,0.10
2018-12-26T14:46:15.903Z,0.10
2018-12-26T14:48:43.438Z,0.00
2018-12-26T14:51:10.775Z,0.00
2018-12-26T14:53:38.601Z,0.00
2018-12-26T14:56:06.731Z,0.00
2018-12-26T14:58:35.005Z,0.00
2018-12-26T15:01:02.414Z,-0.10
2018-12-26T15:03:30.225Z,-0.10
2018-12-26T15:06:00.278Z,-0.10
2018-12-26T15:08:27.891Z,-0.20
2018-12-26T15:10:55.258Z,-0.10
2018-12-26T15:13:23.505Z,-0.20
2018-12-26T15:15:51.711Z,-0.30
2018-12-26T15:18:19.175Z,-0.30
2018-12-26T15:20:46.519Z,-0.40
2018-12-26T15:23:14.272Z,-0.50
2018-12-26T15:25:42.589Z,-0.50
2018-12-26T15:28:11.000Z,-0.60
2018-12-26T15:30:39.001Z,-0.70
2018-12-26T15:33:07.068Z,-0.80
2018-12-26T15:35:35.521Z,-0.80
2018-12-26T15:38:03.422Z,-0.80
2018-12-26T15:40:31.660Z,-0.90
2018-12-26T15:42:59.069Z,-0.90
2018-12-26T15:45:27.319Z,-0.90
2018-12-26T15:47:55.203Z,-1.00
2018-12-26T15:50:22.658Z,-1.00
2018-12-26T15:52:50.508Z,-1.00
2018-12-26T15:55:17.796Z,-1.00
2018-12-26T15:57:46.041Z,-1.00
2018-12-26T16:00:13.751Z,-1.00
2018-12-26T16:02:42.178Z,-1.00
2018-12-26T16:05:10.195Z,-1.00
2018-12-26T16:07:38.219Z,-1.10
2018-12-26T16:10:07.650Z,-1.10
2018-12-26T16:12:35.020Z,-1.10
2018-12-26T16:15:03.040Z,-1.10
2018-12-26T16:17:30.352Z,-1.10
2018-12-26T16:19:58.359Z,-1.10
2018-12-26T16:22:27.175Z,-1.00
2018-12-26T16:24:54.809Z,-1.10
2018-12-26T16:27:22.881Z,-1.00
2018-12-26T16:29:50.178Z,-1.00
2018-12-26T16:32:18.174Z,-1.10
2018-12-26T16:34:45.865Z,-1.20
2018-12-26T16:37:15.106Z,-1.30
2018-12-26T16:39:43.573Z,-1.30
2018-12-26T16:42:11.898Z,-1.40
2018-12-26T16:44:39.475Z,-1.40
2018-12-26T16:47:07.082Z,-1.50
2018-12-26T16:49:34.980Z,-1.40
2018-12-26T16:52:02.555Z,-1.30
2018-12-26T16:54:29.991Z,-1.20
2018-12-26T16:56:58.828Z,-1.20
2018-12-26T16:59:26.800Z,-1.20
2018-12-26T17:01:55.146Z,-1.20
2018-12-26T17:04:23.424Z,-1.20
2018-12-26T17:06:50.866Z,-1.30
2018-12-26T17:09:18.216Z,-1.40
2018-12-26T17:11:45.895Z,-1.40
2018-12-26T17:14:14.126Z,-1.40
2018-12-26T17:16:41.528Z,-1.60
2018-12-26T17:19:09.489Z,-1.60
2018-12-26T17:21:37.061Z,-1.70
2018-12-26T17:24:05.611Z,-1.60
2018-12-26T17:26:33.049Z,-1.50
2018-12-26T17:29:00.405Z,-1.60
2018-12-26T17:31:27.881Z,-1.60
2018-12-26T17:33:55.613Z,-1.70
2018-12-26T17:36:25.856Z,-1.80
2018-12-26T17:38:53.407Z,-1.80
2018-12-26T17:41:20.981Z,-1.80
2018-12-26T17:43:49.296Z,-1.80
2018-12-26T17:46:16.594Z,-1.90
2018-12-26T17:48:44.261Z,-1.80
2018-12-26T17:51:16.779Z,-1.90
2018-12-26T17:54:04.643Z,-1.90
2018-12-26T17:57:01.517Z,-1.90
2018-12-26T18:00:30.403Z,-1.90
2018-12-26T18:02:58.004Z,-1.90
2018-12-26T18:05:26.273Z,-1.70
2018-12-26T18:07:54.752Z,-1.70
2018-12-26T18:10:22.623Z,-1.70
2018-12-26T18:12:50.816Z,-1.60
2018-12-26T18:15:18.559Z,-1.60
2018-12-26T18:17:45.966Z,-1.70
2018-12-26T18:20:13.366Z,-1.70
2018-12-26T18:22:40.674Z,-1.70
2018-12-26T18:25:08.999Z,-1.70
2018-12-26T18:27:36.458Z,-1.70
2018-12-26T18:30:08.447Z,-1.70
2018-12-26T18:32:36.483Z,-1.70
2018-12-26T18:35:04.651Z,-1.70
2018-12-26T18:37:32.563Z,-1.80
2018-12-26T18:39:59.922Z,-1.80
2018-12-26T18:42:27.551Z,-1.80
2018-12-26T18:44:54.890Z,-1.80
2018-12-26T18:47:22.754Z,-1.90
2018-12-26T18:49:52.204Z,-1.90
2018-12-26T18:52:20.443Z,-1.90
2018-12-26T18:54:48.612Z,-2.00
2018-12-26T18:57:18.489Z,-2.00
2018-12-26T18:59:46.388Z,-2.00
2018-12-26T19:02:14.239Z,-2.00
2018-12-26T19:04:42.379Z,-2.10
2018-12-26T19:07:10.844Z,-2.10
2018-12-26T19:09:38.878Z,-2.10
2018-12-26T19:12:06.750Z,-2.10
2018-12-26T19:14:34.295Z,-2.10
2018-12-26T19:17:02.420Z,-2.10
2018-12-26T19:19:30.645Z,-2.20
2018-12-26T19:21:58.228Z,-2.20
2018-12-26T19:24:25.665Z,-2.30
2018-12-26T19:26:53.943Z,-2.20
2018-12-26T19:29:21.999Z,-2.20
2018-12-26T19:31:50.328Z,-2.10
2018-12-26T19:34:18.558Z,-2.10
2018-12-26T19:36:46.113Z,-2.10
2018-12-26T19:39:13.388Z,-2.00
2018-12-26T19:41:43.281Z,-2.00
2018-12-26T19:44:11.865Z,-1.90
2018-12-26T19:46:39.422Z,-1.90
2018-12-26T19:49:07.482Z,-1.90
2018-12-26T19:51:36.243Z,-1.80
2018-12-26T19:54:04.048Z,-1.90
2018-12-26T19:56:31.811Z,-1.90
2018-12-26T19:59:01.825Z,-1.90
2018-12-26T20:01:29.182Z,-1.90
2018-12-26T20:03:57.074Z,-1.90
2018-12-26T20:06:25.230Z,-1.80
2018-12-26T20:08:52.489Z,-1.80
2018-12-26T20:11:21.159Z,-1.80
2018-12-26T20:13:49.365Z,-1.90
2018-12-26T20:16:16.835Z,-1.90
2018-12-26T20:18:45.265Z,-1.90
2018-12-26T20:21:12.709Z,-1.90
2018-12-26T20:23:41.227Z,-2.00
2018-12-26T20:26:08.933Z,-2.00
2018-12-26T20:28:37.038Z,-1.90
2018-12-26T20:31:04.539Z,-1.80
2018-12-26T20:33:32.184Z,-1.80
2018-12-26T20:36:00.011Z,-1.80
2018-12-26T20:38:28.047Z,-1.90
2018-12-26T20:40:55.753Z,-1.90
2018-12-26T20:43:23.340Z,-1.80
2018-12-26T20:45:51.143Z,-1.80
2018-12-26T20:48:19.715Z,-1.80
2018-12-26T20:50:49.061Z,-1.90
2018-12-26T20:53:17.432Z,-2.00
2018-12-26T20:55:45.512Z,-2.00
2018-12-26T20:58:14.001Z,-2.00
2018-12-26T21:00:42.276Z,-2.00
2018-12-26T21:03:10.735Z,-2.00
2018-12-26T21:05:38.290Z,-1.90
2018-12-26T21:08:05.727Z,-1.80
2018-12-26T21:10:33.202Z,-1.80
2018-12-26T21:13:01.609Z,-1.80
2018-12-26T21:15:29.756Z,-1.80
2018-12-26T21:17:57.528Z,-1.70
2018-12-26T21:20:25.150Z,-1.70
2018-12-26T21:22:53.175Z,-1.80
2018-12-26T21:25:20.711Z,-1.80
2018-12-26T21:27:48.580Z,-1.90
2018-12-26T21:30:16.407Z,-1.90
2018-12-26T21:32:44.314Z,-2.00
2018-12-26T21:35:11.821Z,-2.00
2018-12-26T21:37:39.431Z,-1.90
2018-12-26T21:40:08.143Z,-1.90
2018-12-26T21:42:35.439Z,-1.90
2018-12-26T21:45:03.756Z,-1.90
2018-12-26T21:47:32.685Z,-2.00
2018-12-26T21:50:00.496Z,-2.00
2018-12-26T21:52:28.153Z,-2.00
2018-12-26T21:54:56.236Z,-2.10
2018-12-26T21:57:23.640Z,-2.10
2018-12-26T21:59:51.017Z,-2.20
2018-12-26T22:02:22.468Z,-2.20
2018-12-26T22:04:47.687Z,-2.20
2018-12-26T22:07:15.192Z,-2.20
2018-12-26T22:09:43.537Z,-2.20
2018-12-26T22:12:11.375Z,-1.40
2018-12-26T22:14:38.861Z,-2.40
2018-12-26T22:17:06.525Z,-2.30
2018-12-26T22:19:33.934Z,-2.30
2018-12-26T22:22:01.423Z,-2.30
2018-12-26T22:24:29.854Z,-2.30
2018-12-26T22:26:57.392Z,-2.40
2018-12-26T22:29:24.835Z,-2.40
2018-12-26T22:31:52.474Z,-2.60
2018-12-26T22:34:19.798Z,-2.50
2018-12-26T22:36:47.999Z,-2.30
2018-12-26T22:39:16.288Z,-2.30
2018-12-26T22:41:45.055Z,-2.30
2018-12-26T22:44:15.403Z,-2.40
2018-12-26T22:46:43.557Z,-2.40
2018-12-26T22:49:10.921Z,-2.40
2018-12-26T22:51:42.035Z,-2.50
2018-12-26T22:54:08.151Z,-2.50
2018-12-26T22:56:35.915Z,-2.50
2018-12-26T22:59:03.930Z,-2.50
2018-12-26T23:01:31.675Z,-2.60
2018-12-26T23:03:58.991Z,-2.60
2018-12-26T23:06:26.993Z,-2.60
2018-12-26T23:08:55.469Z,-2.60
2018-12-26T23:11:23.033Z,-2.60
2018-12-26T23:13:51.734Z,-2.70
2018-12-26T23:16:19.208Z,-2.80
2018-12-26T23:18:46.596Z,-2.80
2018-12-26T23:21:14.083Z,-2.90
2018-12-26T23:23:42.005Z,-2.90
2018-12-26T23:26:09.670Z,-2.90
2018-12-26T23:28:37.886Z,-2.90
2018-12-26T23:31:05.250Z,-3.00
2018-12-26T23:33:32.834Z,-3.00
2018-12-26T23:36:00.425Z,-3.00
2018-12-26T23:38:28.735Z,-2.90
2018-12-26T23:40:56.275Z,-2.80
2018-12-26T23:43:24.060Z,-2.80
2018-12-26T23:45:52.338Z,-2.80
2018-12-26T23:48:20.319Z,-2.80
2018-12-26T23:50:48.464Z,-2.70
2018-12-26T23:53:16.654Z,-2.80
2018-12-26T23:55:44.510Z,-2.80
2018-12-26T23:58:12.031Z,-2.70
